sensor_id;sensor_type;location;lat;lon;timestamp;P1;durP1;ratioP1;P2;durP2;ratioP2
78057;SDS011;67265;52.514;13.292;2023-03-12T00:01:13;3.53;;;0.82;;
78057;SDS011;67265;52.514;13.292;2023-03-12T00:03:47;2.78;;;0.90;;
78057;SDS011;67265;52.514;13.292;2023-03-12T00:06:14;2.80;;;0.80;;
78057;SDS011;67265;52.514;13.292;2023-03-12T00:08:41;6.65;;;1.05;;
78057;SDS011;67265;52.514;13.292;2023-03-12T00:11:14;3.70;;;1.15;;
78057;SDS011;67265;52.514;13.292;2023-03-12T00:13:42;3.10;;;1.40;;
78057;SDS011;67265;52.514;13.292;2023-03-12T00:16:12;1.35;;;0.82;;
78057;SDS011;67265;52.514;13.292;2023-03-12T00:18:40;5.25;;;0.70;;
78057;SDS011;67265;52.514;13.292;2023-03-12T00:21:07;3.35;;;1.00;;
78057;SDS011;67265;52.514;13.292;2023-03-12T00:23:34;3.53;;;1.52;;
78057;SDS011;67265;52.514;13.292;2023-03-12T00:26:05;1.88;;;1.23;;
78057;SDS011;67265;52.514;13.292;2023-03-12T00:28:33;2.95;;;1.50;;
78057;SDS011;67265;52.514;13.292;2023-03-12T00:31:01;2.95;;;1.10;;
78057;SDS011;67265;52.514;13.292;2023-03-12T00:33:28;2.88;;;1.42;;
78057;SDS011;67265;52.514;13.292;2023-03-12T00:35:55;1.85;;;1.20;;
78057;SDS011;67265;52.514;13.292;2023-03-12T00:38:25;3.85;;;1.13;;
78057;SDS011;67265;52.514;13.292;2023-03-12T00:40:51;3.13;;;0.82;;
78057;SDS011;67265;52.514;13.292;2023-03-12T00:43:18;5.95;;;1.63;;
78057;SDS011;67265;52.514;13.292;2023-03-12T00:45:44;2.50;;;1.13;;
78057;SDS011;67265;52.514;13.292;2023-03-12T00:48:11;3.03;;;0.80;;
78057;SDS011;67265;52.514;13.292;2023-03-12T00:50:37;3.05;;;0.73;;
78057;SDS011;67265;52.514;13.292;2023-03-12T00:53:04;4.80;;;1.05;;
78057;SDS011;67265;52.514;13.292;2023-03-12T00:55:30;4.05;;;1.45;;
78057;SDS011;67265;52.514;13.292;2023-03-12T00:57:57;2.97;;;1.05;;
78057;SDS011;67265;52.514;13.292;2023-03-12T01:00:23;4.57;;;1.45;;
78057;SDS011;67265;52.514;13.292;2023-03-12T01:02:50;7.18;;;1.45;;
78057;SDS011;67265;52.514;13.292;2023-03-12T01:05:16;1.05;;;0.95;;
78057;SDS011;67265;52.514;13.292;2023-03-12T01:07:43;2.35;;;1.20;;
78057;SDS011;67265;52.514;13.292;2023-03-12T01:10:10;5.85;;;1.50;;
78057;SDS011;67265;52.514;13.292;2023-03-12T01:12:39;6.10;;;1.40;;
78057;SDS011;67265;52.514;13.292;2023-03-12T01:15:07;4.13;;;0.93;;
78057;SDS011;67265;52.514;13.292;2023-03-12T01:17:34;2.28;;;2.05;;
78057;SDS011;67265;52.514;13.292;2023-03-12T01:20:00;7.60;;;1.35;;
78057;SDS011;67265;52.514;13.292;2023-03-12T01:22:27;1.73;;;0.55;;
78057;SDS011;67265;52.514;13.292;2023-03-12T01:24:53;3.67;;;1.30;;
78057;SDS011;67265;52.514;13.292;2023-03-12T01:27:20;2.60;;;1.50;;
78057;SDS011;67265;52.514;13.292;2023-03-12T01:29:46;4.03;;;1.10;;
78057;SDS011;67265;52.514;13.292;2023-03-12T01:32:13;6.00;;;1.00;;
78057;SDS011;67265;52.514;13.292;2023-03-12T01:34:39;3.15;;;1.10;;
78057;SDS011;67265;52.514;13.292;2023-03-12T01:37:06;4.28;;;0.82;;
78057;SDS011;67265;52.514;13.292;2023-03-12T01:39:32;2.60;;;1.10;;
78057;SDS011;67265;52.514;13.292;2023-03-12T01:41:59;3.42;;;1.00;;
78057;SDS011;67265;52.514;13.292;2023-03-12T01:44:27;4.47;;;1.45;;
78057;SDS011;67265;52.514;13.292;2023-03-12T01:46:53;2.75;;;0.93;;
78057;SDS011;67265;52.514;13.292;2023-03-12T01:49:30;2.50;;;1.48;;
78057;SDS011;67265;52.514;13.292;2023-03-12T01:54:49;4.30;;;0.95;;
78057;SDS011;67265;52.514;13.292;2023-03-12T01:57:26;2.63;;;1.70;;
78057;SDS011;67265;52.514;13.292;2023-03-12T01:59:59;3.80;;;1.60;;
78057;SDS011;67265;52.514;13.292;2023-03-12T02:02:30;3.70;;;0.75;;
78057;SDS011;67265;52.514;13.292;2023-03-12T02:05:00;4.72;;;0.98;;
78057;SDS011;67265;52.514;13.292;2023-03-12T02:07:31;4.35;;;1.40;;
78057;SDS011;67265;52.514;13.292;2023-03-12T02:09:59;2.78;;;1.00;;
78057;SDS011;67265;52.514;13.292;2023-03-12T02:12:25;2.10;;;1.23;;
78057;SDS011;67265;52.514;13.292;2023-03-12T02:14:52;5.25;;;1.00;;
78057;SDS011;67265;52.514;13.292;2023-03-12T02:17:18;2.63;;;1.73;;
78057;SDS011;67265;52.514;13.292;2023-03-12T02:22:34;3.35;;;1.92;;
78057;SDS011;67265;52.514;13.292;2023-03-12T02:27:57;5.25;;;1.38;;
78057;SDS011;67265;52.514;13.292;2023-03-12T02:30:26;4.22;;;1.33;;
78057;SDS011;67265;52.514;13.292;2023-03-12T02:32:53;4.32;;;1.35;;
78057;SDS011;67265;52.514;13.292;2023-03-12T02:35:20;2.30;;;1.08;;
78057;SDS011;67265;52.514;13.292;2023-03-12T02:37:47;2.10;;;1.60;;
78057;SDS011;67265;52.514;13.292;2023-03-12T02:40:30;3.25;;;1.50;;
78057;SDS011;67265;52.514;13.292;2023-03-12T02:42:59;3.35;;;1.30;;
78057;SDS011;67265;52.514;13.292;2023-03-12T02:45:26;4.10;;;1.98;;
78057;SDS011;67265;52.514;13.292;2023-03-12T02:47:55;6.07;;;1.70;;
78057;SDS011;67265;52.514;13.292;2023-03-12T02:50:21;2.40;;;0.93;;
78057;SDS011;67265;52.514;13.292;2023-03-12T02:52:48;3.25;;;1.50;;
78057;SDS011;67265;52.514;13.292;2023-03-12T02:55:14;2.45;;;0.95;;
78057;SDS011;67265;52.514;13.292;2023-03-12T02:57:40;4.63;;;2.40;;
78057;SDS011;67265;52.514;13.292;2023-03-12T03:00:09;4.22;;;2.03;;
78057;SDS011;67265;52.514;13.292;2023-03-12T03:02:40;2.75;;;1.55;;
78057;SDS011;67265;52.514;13.292;2023-03-12T03:05:08;12.07;;;1.58;;
78057;SDS011;67265;52.514;13.292;2023-03-12T03:07:36;4.00;;;2.08;;
78057;SDS011;67265;52.514;13.292;2023-03-12T03:10:02;4.53;;;1.30;;
78057;SDS011;67265;52.514;13.292;2023-03-12T03:12:30;3.33;;;1.20;;
78057;SDS011;67265;52.514;13.292;2023-03-12T03:14:57;3.92;;;1.83;;
78057;SDS011;67265;52.514;13.292;2023-03-12T03:17:24;2.53;;;1.17;;
78057;SDS011;67265;52.514;13.292;2023-03-12T03:19:51;5.05;;;2.97;;
78057;SDS011;67265;52.514;13.292;2023-03-12T03:22:18;3.63;;;1.52;;
78057;SDS011;67265;52.514;13.292;2023-03-12T03:24:45;2.78;;;1.05;;
78057;SDS011;67265;52.514;13.292;2023-03-12T03:27:12;8.20;;;1.80;;
78057;SDS011;67265;52.514;13.292;2023-03-12T03:29:39;3.80;;;1.27;;
78057;SDS011;67265;52.514;13.292;2023-03-12T03:32:05;6.40;;;1.88;;
78057;SDS011;67265;52.514;13.292;2023-03-12T03:34:32;4.05;;;0.93;;
78057;SDS011;67265;52.514;13.292;2023-03-12T03:36:58;2.10;;;1.23;;
78057;SDS011;67265;52.514;13.292;2023-03-12T03:39:26;1.83;;;1.25;;
78057;SDS011;67265;52.514;13.292;2023-03-12T03:41:54;3.55;;;1.30;;
78057;SDS011;67265;52.514;13.292;2023-03-12T03:44:20;3.35;;;1.40;;
78057;SDS011;67265;52.514;13.292;2023-03-12T03:46:48;2.53;;;1.23;;
78057;SDS011;67265;52.514;13.292;2023-03-12T03:49:14;3.45;;;1.13;;
78057;SDS011;67265;52.514;13.292;2023-03-12T03:51:41;6.90;;;1.75;;
78057;SDS011;67265;52.514;13.292;2023-03-12T03:54:08;3.70;;;1.63;;
78057;SDS011;67265;52.514;13.292;2023-03-12T03:56:35;3.10;;;1.63;;
78057;SDS011;67265;52.514;13.292;2023-03-12T03:59:02;4.47;;;0.90;;
78057;SDS011;67265;52.514;13.292;2023-03-12T04:01:29;3.63;;;1.33;;
78057;SDS011;67265;52.514;13.292;2023-03-12T04:03:56;1.98;;;1.42;;
78057;SDS011;67265;52.514;13.292;2023-03-12T04:06:23;3.85;;;2.15;;
78057;SDS011;67265;52.514;13.292;2023-03-12T04:08:50;4.80;;;2.05;;
78057;SDS011;67265;52.514;13.292;2023-03-12T04:11:18;3.75;;;1.73;;
78057;SDS011;67265;52.514;13.292;2023-03-12T04:13:45;6.50;;;2.17;;
78057;SDS011;67265;52.514;13.292;2023-03-12T04:16:13;5.30;;;2.38;;
78057;SDS011;67265;52.514;13.292;2023-03-12T04:18:39;5.53;;;1.80;;
78057;SDS011;67265;52.514;13.292;2023-03-12T04:21:07;5.78;;;2.28;;
78057;SDS011;67265;52.514;13.292;2023-03-12T04:23:35;4.30;;;2.00;;
78057;SDS011;67265;52.514;13.292;2023-03-12T04:26:02;4.57;;;1.63;;
78057;SDS011;67265;52.514;13.292;2023-03-12T04:28:29;4.57;;;2.47;;
78057;SDS011;67265;52.514;13.292;2023-03-12T04:30:56;7.85;;;2.67;;
78057;SDS011;67265;52.514;13.292;2023-03-12T04:33:27;4.72;;;2.67;;
78057;SDS011;67265;52.514;13.292;2023-03-12T04:35:53;3.83;;;2.47;;
78057;SDS011;67265;52.514;13.292;2023-03-12T04:38:21;5.68;;;2.60;;
78057;SDS011;67265;52.514;13.292;2023-03-12T04:43:29;5.70;;;2.30;;
78057;SDS011;67265;52.514;13.292;2023-03-12T04:45:56;10.50;;;2.42;;
78057;SDS011;67265;52.514;13.292;2023-03-12T04:48:23;6.38;;;3.90;;
78057;SDS011;67265;52.514;13.292;2023-03-12T04:50:50;5.18;;;3.58;;
78057;SDS011;67265;52.514;13.292;2023-03-12T04:53:17;5.82;;;2.50;;
78057;SDS011;67265;52.514;13.292;2023-03-12T04:55:44;6.53;;;2.10;;
78057;SDS011;67265;52.514;13.292;2023-03-12T04:58:10;4.35;;;2.13;;
78057;SDS011;67265;52.514;13.292;2023-03-12T05:00:37;4.38;;;1.83;;
78057;SDS011;67265;52.514;13.292;2023-03-12T05:03:05;5.20;;;2.35;;
78057;SDS011;67265;52.514;13.292;2023-03-12T05:05:32;7.85;;;2.78;;
78057;SDS011;67265;52.514;13.292;2023-03-12T05:07:58;3.63;;;2.28;;
78057;SDS011;67265;52.514;13.292;2023-03-12T05:10:25;4.40;;;2.05;;
78057;SDS011;67265;52.514;13.292;2023-03-12T05:12:52;4.28;;;2.47;;
78057;SDS011;67265;52.514;13.292;2023-03-12T05:15:18;5.72;;;2.63;;
78057;SDS011;67265;52.514;13.292;2023-03-12T05:17:45;4.03;;;2.22;;
78057;SDS011;67265;52.514;13.292;2023-03-12T05:20:11;5.00;;;2.60;;
78057;SDS011;67265;52.514;13.292;2023-03-12T05:22:38;4.50;;;2.70;;
78057;SDS011;67265;52.514;13.292;2023-03-12T05:25:05;5.03;;;2.22;;
78057;SDS011;67265;52.514;13.292;2023-03-12T05:27:32;6.47;;;1.83;;
78057;SDS011;67265;52.514;13.292;2023-03-12T05:29:59;2.38;;;1.70;;
78057;SDS011;67265;52.514;13.292;2023-03-12T05:32:25;5.70;;;1.92;;
78057;SDS011;67265;52.514;13.292;2023-03-12T05:34:52;4.30;;;2.20;;
78057;SDS011;67265;52.514;13.292;2023-03-12T05:37:18;3.00;;;1.77;;
78057;SDS011;67265;52.514;13.292;2023-03-12T05:39:44;3.97;;;1.58;;
78057;SDS011;67265;52.514;13.292;2023-03-12T05:42:14;6.45;;;3.22;;
78057;SDS011;67265;52.514;13.292;2023-03-12T05:44:41;2.38;;;1.45;;
78057;SDS011;67265;52.514;13.292;2023-03-12T05:47:08;4.53;;;1.42;;
78057;SDS011;67265;52.514;13.292;2023-03-12T05:49:35;3.67;;;2.13;;
78057;SDS011;67265;52.514;13.292;2023-03-12T05:52:02;5.35;;;2.00;;
78057;SDS011;67265;52.514;13.292;2023-03-12T05:54:28;5.72;;;1.88;;
78057;SDS011;67265;52.514;13.292;2023-03-12T05:56:55;4.13;;;1.52;;
78057;SDS011;67265;52.514;13.292;2023-03-12T05:59:21;2.50;;;1.23;;
78057;SDS011;67265;52.514;13.292;2023-03-12T06:01:48;2.95;;;2.03;;
78057;SDS011;67265;52.514;13.292;2023-03-12T06:04:14;4.95;;;1.88;;
78057;SDS011;67265;52.514;13.292;2023-03-12T06:06:41;2.85;;;1.48;;
78057;SDS011;67265;52.514;13.292;2023-03-12T06:09:07;5.72;;;2.22;;
78057;SDS011;67265;52.514;13.292;2023-03-12T06:11:34;3.58;;;1.80;;
78057;SDS011;67265;52.514;13.292;2023-03-12T06:14:00;3.03;;;1.25;;
78057;SDS011;67265;52.514;13.292;2023-03-12T06:16:27;4.47;;;1.42;;
78057;SDS011;67265;52.514;13.292;2023-03-12T06:18:55;4.90;;;2.33;;
78057;SDS011;67265;52.514;13.292;2023-03-12T06:21:24;5.68;;;1.45;;
78057;SDS011;67265;52.514;13.292;2023-03-12T06:23:52;4.35;;;2.42;;
78057;SDS011;67265;52.514;13.292;2023-03-12T06:26:20;3.50;;;2.10;;
78057;SDS011;67265;52.514;13.292;2023-03-12T06:28:47;3.65;;;1.50;;
78057;SDS011;67265;52.514;13.292;2023-03-12T06:31:15;4.95;;;2.38;;
78057;SDS011;67265;52.514;13.292;2023-03-12T06:33:42;3.40;;;1.90;;
78057;SDS011;67265;52.514;13.292;2023-03-12T06:36:09;3.25;;;1.20;;
78057;SDS011;67265;52.514;13.292;2023-03-12T06:38:36;2.50;;;1.50;;
78057;SDS011;67265;52.514;13.292;2023-03-12T06:41:04;4.53;;;1.85;;
78057;SDS011;67265;52.514;13.292;2023-03-12T06:43:32;3.85;;;1.40;;
78057;SDS011;67265;52.514;13.292;2023-03-12T06:46:00;2.97;;;1.90;;
78057;SDS011;67265;52.514;13.292;2023-03-12T06:48:28;3.67;;;2.08;;
78057;SDS011;67265;52.514;13.292;2023-03-12T06:50:55;2.88;;;1.40;;
78057;SDS011;67265;52.514;13.292;2023-03-12T06:53:22;3.75;;;1.98;;
78057;SDS011;67265;52.514;13.292;2023-03-12T06:55:50;2.53;;;1.42;;
78057;SDS011;67265;52.514;13.292;2023-03-12T06:58:17;3.00;;;1.42;;
78057;SDS011;67265;52.514;13.292;2023-03-12T07:00:44;3.72;;;1.42;;
78057;SDS011;67265;52.514;13.292;2023-03-12T07:03:10;5.50;;;1.50;;
78057;SDS011;67265;52.514;13.292;2023-03-12T07:05:37;3.83;;;1.08;;
78057;SDS011;67265;52.514;13.292;2023-03-12T07:08:04;8.25;;;1.58;;
78057;SDS011;67265;52.514;13.292;2023-03-12T07:10:30;7.70;;;1.70;;
78057;SDS011;67265;52.514;13.292;2023-03-12T07:12:57;6.70;;;2.03;;
78057;SDS011;67265;52.514;13.292;2023-03-12T07:15:23;4.20;;;1.23;;
78057;SDS011;67265;52.514;13.292;2023-03-12T07:17:50;5.63;;;1.20;;
78057;SDS011;67265;52.514;13.292;2023-03-12T07:20:16;2.08;;;1.10;;
78057;SDS011;67265;52.514;13.292;2023-03-12T07:22:43;2.72;;;1.05;;
78057;SDS011;67265;52.514;13.292;2023-03-12T07:25:10;3.33;;;1.17;;
78057;SDS011;67265;52.514;13.292;2023-03-12T07:27:36;3.60;;;1.30;;
78057;SDS011;67265;52.514;13.292;2023-03-12T07:30:03;3.53;;;1.02;;
78057;SDS011;67265;52.514;13.292;2023-03-12T07:32:30;2.60;;;1.52;;
78057;SDS011;67265;52.514;13.292;2023-03-12T07:34:58;4.15;;;1.33;;
78057;SDS011;67265;52.514;13.292;2023-03-12T07:37:25;2.75;;;1.30;;
78057;SDS011;67265;52.514;13.292;2023-03-12T07:39:51;3.95;;;1.52;;
78057;SDS011;67265;52.514;13.292;2023-03-12T07:42:19;3.15;;;1.40;;
78057;SDS011;67265;52.514;13.292;2023-03-12T07:44:46;4.22;;;1.63;;
78057;SDS011;67265;52.514;13.292;2023-03-12T07:47:13;5.45;;;1.50;;
78057;SDS011;67265;52.514;13.292;2023-03-12T07:49:49;2.80;;;1.13;;
78057;SDS011;67265;52.514;13.292;2023-03-12T07:52:15;3.70;;;1.60;;
78057;SDS011;67265;52.514;13.292;2023-03-12T07:54:43;2.50;;;1.20;;
78057;SDS011;67265;52.514;13.292;2023-03-12T07:57:10;4.18;;;1.50;;
78057;SDS011;67265;52.514;13.292;2023-03-12T07:59:37;4.65;;;1.65;;
78057;SDS011;67265;52.514;13.292;2023-03-12T08:02:04;4.68;;;1.55;;
78057;SDS011;67265;52.514;13.292;2023-03-12T08:04:30;3.90;;;1.35;;
78057;SDS011;67265;52.514;13.292;2023-03-12T08:06:57;2.30;;;1.13;;
78057;SDS011;67265;52.514;13.292;2023-03-12T08:09:23;5.40;;;1.50;;
78057;SDS011;67265;52.514;13.292;2023-03-12T08:11:50;3.78;;;1.30;;
78057;SDS011;67265;52.514;13.292;2023-03-12T08:14:17;2.78;;;1.08;;
78057;SDS011;67265;52.514;13.292;2023-03-12T08:16:43;5.25;;;1.40;;
78057;SDS011;67265;52.514;13.292;2023-03-12T08:19:10;3.42;;;1.35;;
78057;SDS011;67265;52.514;13.292;2023-03-12T08:21:36;6.57;;;2.28;;
78057;SDS011;67265;52.514;13.292;2023-03-12T08:24:03;4.30;;;1.30;;
78057;SDS011;67265;52.514;13.292;2023-03-12T08:26:30;3.28;;;1.00;;
78057;SDS011;67265;52.514;13.292;2023-03-12T08:28:56;4.68;;;1.13;;
78057;SDS011;67265;52.514;13.292;2023-03-12T08:31:26;3.63;;;1.02;;
78057;SDS011;67265;52.514;13.292;2023-03-12T08:33:53;3.85;;;1.23;;
78057;SDS011;67265;52.514;13.292;2023-03-12T08:36:19;4.75;;;1.20;;
78057;SDS011;67265;52.514;13.292;2023-03-12T08:38:47;2.60;;;0.82;;
78057;SDS011;67265;52.514;13.292;2023-03-12T08:41:14;3.58;;;0.98;;
78057;SDS011;67265;52.514;13.292;2023-03-12T08:43:40;3.25;;;0.93;;
78057;SDS011;67265;52.514;13.292;2023-03-12T08:46:07;5.78;;;1.33;;
78057;SDS011;67265;52.514;13.292;2023-03-12T08:48:37;3.38;;;1.13;;
78057;SDS011;67265;52.514;13.292;2023-03-12T08:51:04;3.17;;;1.40;;
78057;SDS011;67265;52.514;13.292;2023-03-12T08:53:33;5.65;;;1.33;;
78057;SDS011;67265;52.514;13.292;2023-03-12T08:56:00;3.35;;;1.23;;
78057;SDS011;67265;52.514;13.292;2023-03-12T08:58:27;2.97;;;1.40;;
78057;SDS011;67265;52.514;13.292;2023-03-12T09:00:54;4.90;;;1.25;;
78057;SDS011;67265;52.514;13.292;2023-03-12T09:03:21;2.28;;;0.75;;
78057;SDS011;67265;52.514;13.292;2023-03-12T09:05:49;2.55;;;0.88;;
78057;SDS011;67265;52.514;13.292;2023-03-12T09:08:16;3.90;;;0.73;;
78057;SDS011;67265;52.514;13.292;2023-03-12T09:10:47;1.95;;;0.60;;
78057;SDS011;67265;52.514;13.292;2023-03-12T09:13:15;4.45;;;1.00;;
78057;SDS011;67265;52.514;13.292;2023-03-12T09:15:42;3.40;;;0.75;;
78057;SDS011;67265;52.514;13.292;2023-03-12T09:18:08;2.63;;;0.80;;
78057;SDS011;67265;52.514;13.292;2023-03-12T09:20:35;2.35;;;0.70;;
78057;SDS011;67265;52.514;13.292;2023-03-12T09:23:02;3.65;;;0.50;;
78057;SDS011;67265;52.514;13.292;2023-03-12T09:25:28;1.83;;;0.30;;
78057;SDS011;67265;52.514;13.292;2023-03-12T09:27:55;1.63;;;0.75;;
78057;SDS011;67265;52.514;13.292;2023-03-12T09:30:21;1.50;;;0.45;;
78057;SDS011;67265;52.514;13.292;2023-03-12T09:32:52;1.95;;;0.50;;
78057;SDS011;67265;52.514;13.292;2023-03-12T09:35:18;2.45;;;0.50;;
78057;SDS011;67265;52.514;13.292;2023-03-12T09:37:46;4.13;;;0.80;;
78057;SDS011;67265;52.514;13.292;2023-03-12T09:40:15;2.35;;;0.45;;
78057;SDS011;67265;52.514;13.292;2023-03-12T09:42:45;1.25;;;0.30;;
78057;SDS011;67265;52.514;13.292;2023-03-12T09:45:27;1.83;;;0.43;;
78057;SDS011;67265;52.514;13.292;2023-03-12T09:47:57;3.92;;;0.55;;
78057;SDS011;67265;52.514;13.292;2023-03-12T09:50:28;1.80;;;0.50;;
78057;SDS011;67265;52.514;13.292;2023-03-12T09:52:58;1.17;;;0.40;;
78057;SDS011;67265;52.514;13.292;2023-03-12T09:55:36;1.60;;;0.45;;
78057;SDS011;67265;52.514;13.292;2023-03-12T09:58:08;2.55;;;0.32;;
78057;SDS011;67265;52.514;13.292;2023-03-12T10:00:38;2.17;;;0.35;;
78057;SDS011;67265;52.514;13.292;2023-03-12T10:08:21;2.15;;;0.38;;
78057;SDS011;67265;52.514;13.292;2023-03-12T10:27:00;1.20;;;0.43;;
78057;SDS011;67265;52.514;13.292;2023-03-12T10:29:33;2.35;;;0.60;;
78057;SDS011;67265;52.514;13.292;2023-03-12T10:32:16;2.78;;;0.47;;
78057;SDS011;67265;52.514;13.292;2023-03-12T10:34:48;1.42;;;0.32;;
78057;SDS011;67265;52.514;13.292;2023-03-12T10:37:23;1.40;;;0.57;;
78057;SDS011;67265;52.514;13.292;2023-03-12T10:39:51;1.70;;;0.40;;
78057;SDS011;67265;52.514;13.292;2023-03-12T10:42:22;2.97;;;0.55;;
78057;SDS011;67265;52.514;13.292;2023-03-12T10:44:51;2.08;;;0.35;;
78057;SDS011;67265;52.514;13.292;2023-03-12T10:52:51;2.58;;;0.57;;
78057;SDS011;67265;52.514;13.292;2023-03-12T10:55:24;3.65;;;0.63;;
78057;SDS011;67265;52.514;13.292;2023-03-12T10:57:52;6.82;;;1.10;;
78057;SDS011;67265;52.514;13.292;2023-03-12T11:00:23;5.80;;;1.23;;
78057;SDS011;67265;52.514;13.292;2023-03-12T11:05:35;2.60;;;0.93;;
78057;SDS011;67265;52.514;13.292;2023-03-12T11:08:03;2.55;;;1.23;;
78057;SDS011;67265;52.514;13.292;2023-03-12T11:10:42;4.18;;;1.33;;
78057;SDS011;67265;52.514;13.292;2023-03-12T11:15:51;1.00;;;0.63;;
78057;SDS011;67265;52.514;13.292;2023-03-12T11:18:25;2.38;;;1.13;;
78057;SDS011;67265;52.514;13.292;2023-03-12T11:23:37;2.85;;;0.60;;
78057;SDS011;67265;52.514;13.292;2023-03-12T11:26:16;3.95;;;0.75;;
78057;SDS011;67265;52.514;13.292;2023-03-12T11:31:39;3.00;;;1.20;;
78057;SDS011;67265;52.514;13.292;2023-03-12T11:34:12;3.03;;;1.05;;
78057;SDS011;67265;52.514;13.292;2023-03-12T11:45:13;2.33;;;0.80;;
78057;SDS011;67265;52.514;13.292;2023-03-12T11:50:23;4.07;;;1.35;;
78057;SDS011;67265;52.514;13.292;2023-03-12T12:09:13;2.00;;;1.30;;
78057;SDS011;67265;52.514;13.292;2023-03-12T12:11:58;3.33;;;0.68;;
78057;SDS011;67265;52.514;13.292;2023-03-12T12:17:24;2.30;;;1.02;;
78057;SDS011;67265;52.514;13.292;2023-03-12T12:26:00;4.90;;;1.00;;
78057;SDS011;67265;52.514;13.292;2023-03-12T12:41:58;2.05;;;1.05;;
78057;SDS011;67265;52.514;13.292;2023-03-12T12:44:40;4.30;;;2.28;;
78057;SDS011;67265;52.514;13.292;2023-03-12T12:47:09;4.68;;;1.30;;
78057;SDS011;67265;52.514;13.292;2023-03-12T12:49:46;3.42;;;1.10;;
78057;SDS011;67265;52.514;13.292;2023-03-12T12:52:16;2.10;;;1.02;;
78057;SDS011;67265;52.514;13.292;2023-03-12T12:55:05;3.80;;;1.20;;
78057;SDS011;67265;52.514;13.292;2023-03-12T12:57:44;2.42;;;1.40;;
78057;SDS011;67265;52.514;13.292;2023-03-12T13:00:35;1.67;;;0.80;;
78057;SDS011;67265;52.514;13.292;2023-03-12T13:03:03;2.30;;;0.68;;
78057;SDS011;67265;52.514;13.292;2023-03-12T13:08:03;2.45;;;1.02;;
78057;SDS011;67265;52.514;13.292;2023-03-12T13:13:02;2.60;;;0.90;;
78057;SDS011;67265;52.514;13.292;2023-03-12T13:20:24;2.53;;;1.30;;
78057;SDS011;67265;52.514;13.292;2023-03-12T13:23:23;2.97;;;1.63;;
78057;SDS011;67265;52.514;13.292;2023-03-12T13:30:55;2.78;;;0.80;;
78057;SDS011;67265;52.514;13.292;2023-03-12T13:33:45;1.08;;;0.80;;
78057;SDS011;67265;52.514;13.292;2023-03-12T13:38:58;3.00;;;1.00;;
78057;SDS011;67265;52.514;13.292;2023-03-12T13:41:35;2.92;;;0.80;;
78057;SDS011;67265;52.514;13.292;2023-03-12T13:46:56;1.27;;;0.50;;
78057;SDS011;67265;52.514;13.292;2023-03-12T13:49:24;3.00;;;0.65;;
78057;SDS011;67265;52.514;13.292;2023-03-12T13:52:07;1.45;;;0.70;;
78057;SDS011;67265;52.514;13.292;2023-03-12T13:57:40;2.38;;;0.77;;
78057;SDS011;67265;52.514;13.292;2023-03-12T14:03:15;1.00;;;0.68;;
78057;SDS011;67265;52.514;13.292;2023-03-12T14:06:27;1.48;;;0.60;;
78057;SDS011;67265;52.514;13.292;2023-03-12T14:08:46;2.17;;;0.95;;
78057;SDS011;67265;52.514;13.292;2023-03-12T14:11:36;2.60;;;0.63;;
78057;SDS011;67265;52.514;13.292;2023-03-12T14:16:54;2.78;;;1.00;;
78057;SDS011;67265;52.514;13.292;2023-03-12T14:19:23;2.55;;;0.65;;
78057;SDS011;67265;52.514;13.292;2023-03-12T14:21:51;2.13;;;0.65;;
78057;SDS011;67265;52.514;13.292;2023-03-12T14:26:45;2.03;;;0.52;;
78057;SDS011;67265;52.514;13.292;2023-03-12T14:29:17;1.77;;;0.50;;
78057;SDS011;67265;52.514;13.292;2023-03-12T14:32:02;2.38;;;0.40;;
78057;SDS011;67265;52.514;13.292;2023-03-12T14:34:38;2.13;;;0.55;;
78057;SDS011;67265;52.514;13.292;2023-03-12T14:37:17;1.95;;;0.32;;
78057;SDS011;67265;52.514;13.292;2023-03-12T14:39:53;2.70;;;0.65;;
78057;SDS011;67265;52.514;13.292;2023-03-12T14:42:25;1.40;;;0.60;;
78057;SDS011;67265;52.514;13.292;2023-03-12T14:44:58;3.60;;;0.80;;
78057;SDS011;67265;52.514;13.292;2023-03-12T14:48:09;2.55;;;0.55;;
78057;SDS011;67265;52.514;13.292;2023-03-12T14:50:38;1.45;;;0.32;;
78057;SDS011;67265;52.514;13.292;2023-03-12T14:53:12;1.25;;;0.40;;
78057;SDS011;67265;52.514;13.292;2023-03-12T14:55:42;1.20;;;0.50;;
78057;SDS011;67265;52.514;13.292;2023-03-12T14:58:18;2.10;;;0.60;;
78057;SDS011;67265;52.514;13.292;2023-03-12T15:00:53;4.78;;;0.68;;
78057;SDS011;67265;52.514;13.292;2023-03-12T15:03:24;1.83;;;0.70;;
78057;SDS011;67265;52.514;13.292;2023-03-12T15:05:52;2.90;;;0.77;;
78057;SDS011;67265;52.514;13.292;2023-03-12T15:08:19;1.63;;;0.60;;
78057;SDS011;67265;52.514;13.292;2023-03-12T15:10:46;0.98;;;0.50;;
78057;SDS011;67265;52.514;13.292;2023-03-12T15:13:18;2.53;;;1.10;;
78057;SDS011;67265;52.514;13.292;2023-03-12T15:15:46;1.33;;;0.82;;
78057;SDS011;67265;52.514;13.292;2023-03-12T15:18:19;3.28;;;0.77;;
78057;SDS011;67265;52.514;13.292;2023-03-12T15:20:55;1.65;;;1.10;;
78057;SDS011;67265;52.514;13.292;2023-03-12T15:23:23;2.63;;;1.17;;
78057;SDS011;67265;52.514;13.292;2023-03-12T15:28:37;3.13;;;1.02;;
78057;SDS011;67265;52.514;13.292;2023-03-12T15:31:12;2.13;;;0.90;;
78057;SDS011;67265;52.514;13.292;2023-03-12T15:33:41;4.15;;;1.00;;
78057;SDS011;67265;52.514;13.292;2023-03-12T15:38:45;2.95;;;0.93;;
78057;SDS011;67265;52.514;13.292;2023-03-12T15:41:17;2.67;;;1.25;;
78057;SDS011;67265;52.514;13.292;2023-03-12T15:43:47;4.18;;;0.73;;
78057;SDS011;67265;52.514;13.292;2023-03-12T15:46:17;4.70;;;1.30;;
78057;SDS011;67265;52.514;13.292;2023-03-12T15:48:48;3.22;;;1.10;;
78057;SDS011;67265;52.514;13.292;2023-03-12T15:51:32;3.72;;;1.40;;
78057;SDS011;67265;52.514;13.292;2023-03-12T15:56:30;4.30;;;1.30;;
78057;SDS011;67265;52.514;13.292;2023-03-12T15:59:00;3.05;;;0.95;;
78057;SDS011;67265;52.514;13.292;2023-03-12T16:01:28;2.03;;;1.08;;
78057;SDS011;67265;52.514;13.292;2023-03-12T16:03:55;3.28;;;1.02;;
78057;SDS011;67265;52.514;13.292;2023-03-12T16:06:24;3.08;;;0.90;;
78057;SDS011;67265;52.514;13.292;2023-03-12T16:08:52;2.65;;;0.80;;
78057;SDS011;67265;52.514;13.292;2023-03-12T16:11:22;3.60;;;1.25;;
78057;SDS011;67265;52.514;13.292;2023-03-12T16:13:51;5.68;;;1.58;;
78057;SDS011;67265;52.514;13.292;2023-03-12T16:16:23;4.03;;;1.20;;
78057;SDS011;67265;52.514;13.292;2023-03-12T16:18:50;3.08;;;1.42;;
78057;SDS011;67265;52.514;13.292;2023-03-12T16:21:16;6.05;;;1.77;;
78057;SDS011;67265;52.514;13.292;2023-03-12T16:23:43;3.60;;;1.55;;
78057;SDS011;67265;52.514;13.292;2023-03-12T16:26:10;4.03;;;1.73;;
78057;SDS011;67265;52.514;13.292;2023-03-12T16:28:36;4.72;;;1.88;;
78057;SDS011;67265;52.514;13.292;2023-03-12T16:31:08;3.78;;;1.85;;
78057;SDS011;67265;52.514;13.292;2023-03-12T16:33:37;4.65;;;2.40;;
78057;SDS011;67265;52.514;13.292;2023-03-12T16:36:08;6.22;;;2.22;;
78057;SDS011;67265;52.514;13.292;2023-03-12T16:38:37;4.68;;;1.98;;
78057;SDS011;67265;52.514;13.292;2023-03-12T16:41:03;4.95;;;2.28;;
78057;SDS011;67265;52.514;13.292;2023-03-12T16:43:30;5.72;;;2.20;;
78057;SDS011;67265;52.514;13.292;2023-03-12T16:45:59;3.55;;;2.08;;
78057;SDS011;67265;52.514;13.292;2023-03-12T16:48:25;4.80;;;1.80;;
78057;SDS011;67265;52.514;13.292;2023-03-12T16:50:53;3.78;;;1.65;;
78057;SDS011;67265;52.514;13.292;2023-03-12T16:53:21;5.05;;;2.17;;
78057;SDS011;67265;52.514;13.292;2023-03-12T16:55:48;4.53;;;2.85;;
78057;SDS011;67265;52.514;13.292;2023-03-12T16:58:21;3.83;;;2.35;;
78057;SDS011;67265;52.514;13.292;2023-03-12T17:00:49;5.00;;;2.97;;
78057;SDS011;67265;52.514;13.292;2023-03-12T17:03:30;5.82;;;2.58;;